Time;durP1;ratioP1;P1;durP2;ratioP2;P2;SDS_P1;SDS_P2;PMS_P1;PMS_P2;Temp;Humidity;BMP_temperature;BMP_pressure;BME280_temperature;BME280_humidity;BME280_pressure;Samples;Min_cycle;Max_cycle;Signal;HPM_P1;HPM_P2
2022/12/21 00:03:24;;;;;;;1.13;0.90;;;;;;;;;;12849310;23;20030;-82
2022/12/21 00:08:29;;;;;;;0.73;0.73;;;;;;;;;;12847176;23;20020;-83
2022/12/21 00:13:35;;;;;;;0.90;0.90;;;;;;;;;;12849035;23;20466;-81
2022/12/21 00:18:39;;;;;;;1.07;0.73;;;;;;;;;;12849909;23;20108;-82
2022/12/21 00:23:45;;;;;;;1.00;0.90;;;;;;;;;;12879712;23;20252;-81
2022/12/21 00:28:50;;;;;;;0.90;0.88;;;;;;;;;;12879138;23;20055;-83
2022/12/21 00:33:54;;;;;;;1.02;0.90;;;;;;;;;;12856447;23;20534;-83
2022/12/21 00:38:59;;;;;;;1.70;0.95;;;;;;;;;;12852638;23;20034;-82
2022/12/21 00:44:02;;;;;;;1.45;0.90;;;;;;;;;;12853413;23;20217;-81
2022/12/21 00:49:07;;;;;;;0.80;0.80;;;;;;;;;;12831767;23;20044;-79
2022/12/21 00:54:11;;;;;;;0.75;0.75;;;;;;;;;;12851830;23;20103;-80
2022/12/21 00:59:17;;;;;;;1.45;0.77;;;;;;;;;;12826042;23;20079;-81
2022/12/21 01:04:21;;;;;;;0.82;0.70;;;;;;;;;;12851272;23;20024;-80
2022/12/21 01:09:26;;;;;;;0.50;0.50;;;;;;;;;;12870771;23;20551;-82
2022/12/21 01:14:29;;;;;;;0.55;0.55;;;;;;;;;;12854833;23;20379;-83
2022/12/21 01:19:33;;;;;;;0.47;0.45;;;;;;;;;;12875715;23;20305;-83
2022/12/21 01:24:38;;;;;;;0.50;0.50;;;;;;;;;;12854685;22;20017;-83
2022/12/21 01:29:41;;;;;;;0.50;0.45;;;;;;;;;;12875769;23;20028;-82
2022/12/21 01:34:44;;;;;;;0.73;0.40;;;;;;;;;;12876554;23;20016;-83
2022/12/21 01:39:49;;;;;;;0.70;0.30;;;;;;;;;;12852014;23;20525;-82
2022/12/21 01:45:06;;;;;;;0.40;0.40;;;;;;;;;;12825384;23;20024;-82
2022/12/21 01:50:35;;;;;;;1.33;0.22;;;;;;;;;;12826345;23;20024;-82
2022/12/21 01:55:41;;;;;;;0.85;0.25;;;;;;;;;;12870093;23;20024;-82
2022/12/21 02:00:46;;;;;;;0.28;0.28;;;;;;;;;;12830140;23;20457;-80
2022/12/21 02:05:54;;;;;;;0.55;0.50;;;;;;;;;;12820889;23;20024;-80
2022/12/21 02:11:00;;;;;;;0.40;0.40;;;;;;;;;;12834873;23;20521;-83
2022/12/21 02:16:15;;;;;;;0.30;0.30;;;;;;;;;;12842227;23;20020;-84
2022/12/21 02:21:23;;;;;;;0.20;0.20;;;;;;;;;;12817078;23;20252;-82
2022/12/21 02:26:56;;;;;;;0.20;0.20;;;;;;;;;;12838372;23;20029;-83
2022/12/21 02:32:10;;;;;;;0.30;0.30;;;;;;;;;;12809663;23;20095;-81
2022/12/21 02:37:35;;;;;;;0.40;0.40;;;;;;;;;;12625312;23;20483;-80
2022/12/21 02:48:17;;;;;;;0.50;0.40;;;;;;;;;;12638107;23;20034;-80
2022/12/21 02:53:26;;;;;;;0.82;0.55;;;;;;;;;;12632880;23;20025;-81
2022/12/21 02:58:29;;;;;;;0.47;0.47;;;;;;;;;;12605464;23;20030;-81
2022/12/21 03:03:57;;;;;;;0.60;0.47;;;;;;;;;;12633703;23;20634;-83
2022/12/21 03:09:12;;;;;;;0.40;0.40;;;;;;;;;;12838143;23;20044;-82
2022/12/21 03:14:26;;;;;;;0.40;0.40;;;;;;;;;;12843140;23;20576;-80
2022/12/21 03:19:39;;;;;;;0.30;0.30;;;;;;;;;;12861522;23;20028;-82
2022/12/21 03:24:47;;;;;;;0.20;0.20;;;;;;;;;;12842129;23;20028;-82
2022/12/21 03:29:53;;;;;;;0.20;0.20;;;;;;;;;;12850183;23;20028;-80
2022/12/21 03:34:58;;;;;;;;;;;;;;;;;;12824603;23;20419;-79
2022/12/21 03:40:09;;;;;;;0.20;0.20;;;;;;;;;;12850150;23;19916;-80
2022/12/21 03:45:17;;;;;;;0.20;0.20;;;;;;;;;;12844468;22;20472;-80
2022/12/21 03:50:27;;;;;;;0.13;0.13;;;;;;;;;;12823686;22;20020;-80
2022/12/21 03:55:32;;;;;;;0.47;0.30;;;;;;;;;;12829952;22;20027;-81
2022/12/21 04:00:44;;;;;;;0.25;0.25;;;;;;;;;;12864853;23;20024;-82
2022/12/21 04:05:53;;;;;;;0.20;0.20;;;;;;;;;;12880455;22;20021;-83
2022/12/21 04:10:56;;;;;;;0.55;0.30;;;;;;;;;;12851655;23;20028;-82
2022/12/21 04:16:06;;;;;;;0.20;0.20;;;;;;;;;;12829458;22;20043;-80
2022/12/21 04:21:10;;;;;;;0.17;0.17;;;;;;;;;;12835294;23;20036;-84
2022/12/21 04:31:34;;;;;;;0.30;0.28;;;;;;;;;;12852436;22;20027;-83
2022/12/21 04:42:00;;;;;;;0.20;0.20;;;;;;;;;;12864010;22;20031;-82
2022/12/21 04:47:04;;;;;;;0.30;0.30;;;;;;;;;;12864650;22;20039;-84
2022/12/21 04:52:08;;;;;;;0.30;0.30;;;;;;;;;;12852079;22;20021;-80
2022/12/21 04:57:11;;;;;;;0.40;0.40;;;;;;;;;;12823645;23;20021;-81
2022/12/21 05:02:15;;;;;;;0.40;0.30;;;;;;;;;;12823610;22;20021;-80
2022/12/21 05:07:20;;;;;;;0.20;0.20;;;;;;;;;;12825765;23;20421;-81
2022/12/21 05:12:23;;;;;;;0.43;0.20;;;;;;;;;;12848939;23;20055;-84
2022/12/21 05:17:27;;;;;;;0.20;0.20;;;;;;;;;;12856073;22;20029;-82
2022/12/21 05:22:31;;;;;;;0.20;0.20;;;;;;;;;;12851752;22;20028;-84
2022/12/21 05:27:35;;;;;;;0.10;0.10;;;;;;;;;;12837189;23;20031;-83
2022/12/21 05:32:38;;;;;;;0.10;0.10;;;;;;;;;;12837544;23;20124;-86
2022/12/21 05:37:43;;;;;;;0.15;0.15;;;;;;;;;;12858707;23;20016;-84
2022/12/21 05:42:46;;;;;;;0.20;0.20;;;;;;;;;;12832757;22;20021;-82
2022/12/21 05:47:49;;;;;;;0.30;0.30;;;;;;;;;;12845464;23;20103;-82
2022/12/21 05:52:54;;;;;;;0.30;0.30;;;;;;;;;;12849157;22;20024;-83
2022/12/21 05:58:00;;;;;;;0.20;0.20;;;;;;;;;;12855203;22;20024;-82
2022/12/21 06:03:04;;;;;;;0.20;0.20;;;;;;;;;;12853711;23;20597;-84
2022/12/21 06:08:09;;;;;;;0.20;0.20;;;;;;;;;;12878947;23;20043;-86
2022/12/21 06:13:12;;;;;;;0.28;0.28;;;;;;;;;;12857740;23;20051;-83
2022/12/21 06:18:16;;;;;;;0.10;0.10;;;;;;;;;;12885552;23;20021;-82
2022/12/21 06:23:21;;;;;;;0.20;0.20;;;;;;;;;;12865849;22;20549;-82
2022/12/21 06:28:25;;;;;;;0.10;0.10;;;;;;;;;;12849861;23;20024;-83
2022/12/21 06:33:29;;;;;;;0.20;0.20;;;;;;;;;;12857519;23;20482;-82
2022/12/21 06:38:34;;;;;;;0.20;0.20;;;;;;;;;;12880349;23;20043;-83
2022/12/21 06:43:38;;;;;;;0.20;0.20;;;;;;;;;;12855263;23;20021;-83
2022/12/21 06:48:42;;;;;;;0.20;0.20;;;;;;;;;;12840905;23;20361;-85
2022/12/21 06:53:49;;;;;;;0.40;0.30;;;;;;;;;;12825894;23;20056;-85
2022/12/21 06:58:55;;;;;;;0.93;0.45;;;;;;;;;;12845331;23;20027;-84
2022/12/21 07:03:59;;;;;;;0.47;0.30;;;;;;;;;;12847220;23;20436;-85
2022/12/21 07:09:04;;;;;;;0.20;0.20;;;;;;;;;;12924349;22;20115;-83
2022/12/21 07:14:07;;;;;;;0.22;0.20;;;;;;;;;;12992841;22;20024;-83
2022/12/21 07:19:11;;;;;;;0.20;0.20;;;;;;;;;;12993068;22;20420;-84
2022/12/21 07:24:15;;;;;;;0.20;0.20;;;;;;;;;;12967085;22;20026;-84
2022/12/21 07:29:19;;;;;;;0.30;0.30;;;;;;;;;;12967510;22;20559;-83
2022/12/21 07:34:22;;;;;;;0.20;0.20;;;;;;;;;;12970477;22;20027;-84
2022/12/21 07:39:27;;;;;;;0.68;0.30;;;;;;;;;;12950120;22;20020;-84
2022/12/21 07:44:30;;;;;;;0.20;0.20;;;;;;;;;;12942033;22;20548;-85
2022/12/21 07:49:55;;;;;;;0.55;0.30;;;;;;;;;;12940884;22;20089;-85
2022/12/21 07:55:00;;;;;;;0.20;0.20;;;;;;;;;;12942652;22;20035;-85
2022/12/21 08:00:05;;;;;;;0.43;0.43;;;;;;;;;;12942196;22;20020;-85
2022/12/21 08:05:14;;;;;;;1.48;0.95;;;;;;;;;;12948267;22;20035;-85
2022/12/21 08:10:19;;;;;;;0.60;0.52;;;;;;;;;;12945787;22;20020;-85
2022/12/21 08:15:24;;;;;;;0.80;0.70;;;;;;;;;;12972983;22;20035;-85
2022/12/21 08:20:27;;;;;;;0.93;0.57;;;;;;;;;;12944833;22;20506;-85
2022/12/21 08:25:34;;;;;;;0.60;0.55;;;;;;;;;;12945969;22;20078;-86
2022/12/21 08:30:38;;;;;;;1.10;1.00;;;;;;;;;;12944930;22;20050;-86
2022/12/21 08:35:43;;;;;;;1.42;0.80;;;;;;;;;;12959265;22;20019;-86
2022/12/21 08:40:49;;;;;;;0.70;0.70;;;;;;;;;;12981274;22;20027;-86
2022/12/21 08:45:52;;;;;;;2.15;1.30;;;;;;;;;;12982367;22;20031;-87
2022/12/21 08:50:56;;;;;;;2.05;1.48;;;;;;;;;;13008880;22;20027;-87
2022/12/21 08:56:01;;;;;;;1.60;1.20;;;;;;;;;;12984928;22;20028;-88
2022/12/21 09:01:05;;;;;;;1.92;1.23;;;;;;;;;;13011016;22;20023;-87
2022/12/21 09:06:09;;;;;;;0.93;0.80;;;;;;;;;;12986455;22;20023;-87
2022/12/21 09:11:16;;;;;;;0.50;0.40;;;;;;;;;;12968027;22;20086;-86
2022/12/21 09:16:22;;;;;;;0.40;0.40;;;;;;;;;;12952083;22;20024;-86
2022/12/21 09:21:25;;;;;;;0.20;0.20;;;;;;;;;;12951570;22;20155;-85
2022/12/21 09:26:30;;;;;;;1.00;0.50;;;;;;;;;;12974516;22;20024;-85
2022/12/21 09:31:33;;;;;;;0.52;0.35;;;;;;;;;;12981322;22;20098;-87
2022/12/21 09:36:37;;;;;;;0.93;0.30;;;;;;;;;;12969146;22;20041;-85
2022/12/21 09:42:14;;;;;;;1.60;0.30;;;;;;;;;;12942336;22;20023;-85
2022/12/21 09:47:22;;;;;;;0.85;0.30;;;;;;;;;;12958736;22;20098;-85
2022/12/21 09:52:30;;;;;;;0.20;0.20;;;;;;;;;;12967117;22;20023;-85
2022/12/21 09:57:37;;;;;;;0.30;0.30;;;;;;;;;;12975294;22;20016;-88
2022/12/21 10:02:57;;;;;;;0.65;0.35;;;;;;;;;;12975684;22;20075;-87
2022/12/21 10:08:28;;;;;;;0.40;0.40;;;;;;;;;;12955301;22;20027;-88
2022/12/21 10:13:45;;;;;;;0.35;0.30;;;;;;;;;;12980580;22;20024;-89
2022/12/21 10:18:59;;;;;;;0.30;0.28;;;;;;;;;;12981879;22;20097;-88
2022/12/21 10:24:05;;;;;;;0.30;0.30;;;;;;;;;;12983011;22;20024;-88
2022/12/21 10:29:17;;;;;;;1.02;0.43;;;;;;;;;;12991055;22;20026;-88
2022/12/21 10:34:25;;;;;;;0.38;0.30;;;;;;;;;;12983418;22;20024;-89
2022/12/21 10:39:31;;;;;;;0.40;0.30;;;;;;;;;;12986976;22;20004;-88
2022/12/21 10:44:40;;;;;;;0.27;0.27;;;;;;;;;;12988289;22;20078;-88
2022/12/21 10:49:52;;;;;;;3.55;0.90;;;;;;;;;;12990250;22;20407;-88
2022/12/21 10:54:58;;;;;;;0.70;0.60;;;;;;;;;;12980135;22;20046;-88
2022/12/21 11:00:23;;;;;;;0.68;0.40;;;;;;;;;;12982463;22;20038;-92
2022/12/21 11:05:29;;;;;;;0.90;0.50;;;;;;;;;;12945076;22;20605;-87
2022/12/21 11:10:33;;;;;;;1.45;0.63;;;;;;;;;;12946537;22;20087;-86
2022/12/21 11:15:59;;;;;;;0.68;0.50;;;;;;;;;;12947901;22;20027;-86
2022/12/21 11:21:12;;;;;;;0.68;0.52;;;;;;;;;;12947468;22;20361;-85
2022/12/21 11:26:16;;;;;;;1.30;0.80;;;;;;;;;;12976133;22;20027;-88
2022/12/21 11:31:29;;;;;;;0.95;0.85;;;;;;;;;;12978233;22;20093;-91
2022/12/21 11:36:34;;;;;;;1.42;0.60;;;;;;;;;;12983182;22;20083;-87
2022/12/21 11:41:37;;;;;;;0.77;0.77;;;;;;;;;;12969639;22;20024;-88
2022/12/21 11:46:54;;;;;;;0.50;0.40;;;;;;;;;;12945009;22;20023;-88
2022/12/21 11:52:03;;;;;;;0.90;0.50;;;;;;;;;;12945769;22;20024;-92
2022/12/21 11:57:21;;;;;;;0.82;0.80;;;;;;;;;;12961685;22;20453;-89
2022/12/21 12:02:52;;;;;;;1.10;0.88;;;;;;;;;;12973826;22;20055;-90
2022/12/21 12:08:01;;;;;;;0.80;0.60;;;;;;;;;;12970169;22;20038;-89
2022/12/21 12:13:15;;;;;;;1.67;0.80;;;;;;;;;;12975082;22;20024;-90
2022/12/21 12:18:31;;;;;;;0.93;0.70;;;;;;;;;;12973191;22;20044;-90
2022/12/21 12:23:48;;;;;;;2.20;1.15;;;;;;;;;;12972449;22;20029;-89
2022/12/21 12:29:13;;;;;;;2.58;0.90;;;;;;;;;;12971382;22;20051;-87
2022/12/21 12:34:43;;;;;;;1.27;0.80;;;;;;;;;;12946891;22;20031;-89
2022/12/21 12:40:00;;;;;;;1.92;0.93;;;;;;;;;;12974264;22;20522;-87
2022/12/21 12:45:19;;;;;;;0.70;0.50;;;;;;;;;;12983256;22;20026;-86
2022/12/21 12:50:30;;;;;;;1.70;0.55;;;;;;;;;;12969904;22;20016;-85
2022/12/21 12:55:43;;;;;;;1.38;0.70;;;;;;;;;;12961379;22;20015;-87
2022/12/21 13:00:57;;;;;;;1.92;0.75;;;;;;;;;;12957968;22;20023;-84
2022/12/21 13:06:13;;;;;;;2.13;0.63;;;;;;;;;;12943873;22;20400;-84
2022/12/21 13:11:24;;;;;;;2.22;0.73;;;;;;;;;;12976116;22;20107;-85
2022/12/21 13:16:32;;;;;;;0.82;0.60;;;;;;;;;;12969156;22;20453;-85
2022/12/21 13:21:40;;;;;;;1.58;0.60;;;;;;;;;;12962612;22;20074;-85
2022/12/21 13:26:46;;;;;;;2.13;0.70;;;;;;;;;;12943836;22;20047;-85
2022/12/21 13:31:53;;;;;;;3.72;0.95;;;;;;;;;;12945495;22;20038;-85
2022/12/21 13:37:04;;;;;;;4.97;1.13;;;;;;;;;;12956509;22;20367;-84
2022/12/21 13:42:15;;;;;;;1.90;0.77;;;;;;;;;;12948598;22;20097;-85
2022/12/21 13:47:27;;;;;;;3.30;0.80;;;;;;;;;;12955393;22;20077;-85
2022/12/21 13:52:41;;;;;;;3.13;0.70;;;;;;;;;;12975249;22;20055;-87
2022/12/21 13:57:55;;;;;;;3.65;0.60;;;;;;;;;;12979684;22;20273;-88
2022/12/21 14:03:07;;;;;;;2.03;0.60;;;;;;;;;;12980295;22;20079;-88
2022/12/21 14:08:41;;;;;;;0.73;0.57;;;;;;;;;;12978818;22;20350;-89
2022/12/21 14:14:04;;;;;;;0.55;0.52;;;;;;;;;;12946391;22;20024;-86
2022/12/21 14:19:17;;;;;;;2.55;0.57;;;;;;;;;;12962914;22;20024;-87
2022/12/21 14:24:26;;;;;;;1.38;0.40;;;;;;;;;;12932748;22;20496;-87
2022/12/21 14:29:37;;;;;;;0.88;0.47;;;;;;;;;;12962373;22;20016;-88
2022/12/21 14:34:44;;;;;;;0.40;0.20;;;;;;;;;;12921519;22;20031;-86
2022/12/21 14:40:27;;;;;;;2.22;0.90;;;;;;;;;;12944737;22;20020;-86
2022/12/21 14:45:56;;;;;;;3.28;0.68;;;;;;;;;;12974307;22;20097;-89
2022/12/21 14:51:08;;;;;;;0.40;0.40;;;;;;;;;;12970959;22;20034;-88
2022/12/21 14:56:16;;;;;;;1.13;0.40;;;;;;;;;;12981726;22;20047;-88
2022/12/21 15:01:33;;;;;;;1.17;0.47;;;;;;;;;;12955575;22;20023;-87
2022/12/21 15:06:40;;;;;;;1.52;0.70;;;;;;;;;;12979549;22;20027;-89
2022/12/21 15:11:51;;;;;;;2.00;0.70;;;;;;;;;;12977704;22;20023;-90
2022/12/21 15:16:57;;;;;;;0.85;0.50;;;;;;;;;;12977592;22;20019;-88
2022/12/21 15:22:27;;;;;;;0.60;0.40;;;;;;;;;;12980260;22;20055;-88
2022/12/21 15:27:40;;;;;;;1.98;0.60;;;;;;;;;;12978765;22;20690;-88
2022/12/21 15:32:52;;;;;;;2.28;1.00;;;;;;;;;;12979939;22;20039;-88
2022/12/21 15:37:58;;;;;;;2.03;1.45;;;;;;;;;;12979377;22;20469;-88
2022/12/21 15:43:11;;;;;;;2.55;1.60;;;;;;;;;;12979591;22;20578;-88
2022/12/21 15:48:20;;;;;;;0.93;0.70;;;;;;;;;;13004448;22;20028;-87
2022/12/21 15:53:25;;;;;;;1.58;1.10;;;;;;;;;;13006928;22;20058;-86
2022/12/21 15:58:40;;;;;;;1.08;0.90;;;;;;;;;;12939450;22;20500;-86
2022/12/21 16:03:48;;;;;;;2.72;1.30;;;;;;;;;;12947075;22;20094;-86
2022/12/21 16:08:57;;;;;;;1.42;1.00;;;;;;;;;;12969665;22;20034;-87
2022/12/21 16:14:09;;;;;;;3.45;1.55;;;;;;;;;;12942437;22;20034;-86
2022/12/21 16:19:23;;;;;;;1.50;1.13;;;;;;;;;;12941149;22;20349;-87
2022/12/21 16:24:28;;;;;;;3.25;1.30;;;;;;;;;;12955606;22;20024;-88
2022/12/21 16:29:43;;;;;;;2.90;2.30;;;;;;;;;;12951834;22;20034;-87
2022/12/21 16:34:51;;;;;;;3.57;2.57;;;;;;;;;;12941518;22;20024;-88
2022/12/21 16:40:00;;;;;;;4.57;2.90;;;;;;;;;;12968694;22;20647;-87
2022/12/21 16:45:52;;;;;;;4.45;3.20;;;;;;;;;;12941872;22;20118;-87
2022/12/21 17:02:18;;;;;;;2.40;1.42;;;;;;;;;;12887519;22;20024;-86
2022/12/21 17:07:27;;;;;;;1.40;1.08;;;;;;;;;;12899808;22;20079;-83
2022/12/21 17:12:41;;;;;;;2.50;1.38;;;;;;;;;;12903395;22;20024;-83
2022/12/21 17:17:48;;;;;;;2.33;1.60;;;;;;;;;;12905446;22;20028;-84
2022/12/21 17:23:01;;;;;;;3.58;2.00;;;;;;;;;;12909818;23;20031;-83
2022/12/21 17:28:05;;;;;;;2.78;1.63;;;;;;;;;;12906719;23;20044;-84
2022/12/21 17:33:19;;;;;;;2.08;1.38;;;;;;;;;;12914556;23;20514;-84
2022/12/21 17:38:23;;;;;;;1.83;1.23;;;;;;;;;;12913581;23;20054;-83
2022/12/21 17:43:26;;;;;;;2.53;1.50;;;;;;;;;;12922192;23;20099;-80
2022/12/21 17:48:31;;;;;;;2.25;1.50;;;;;;;;;;12906979;23;20039;-83
2022/12/21 17:53:34;;;;;;;2.20;1.02;;;;;;;;;;12921686;22;20184;-83
2022/12/21 17:58:38;;;;;;;2.90;1.00;;;;;;;;;;12908852;22;20035;-84
2022/12/21 18:03:44;;;;;;;1.70;0.90;;;;;;;;;;12882932;23;20447;-83
2022/12/21 18:08:50;;;;;;;1.92;0.77;;;;;;;;;;12881647;23;20099;-83
2022/12/21 18:13:54;;;;;;;1.45;0.70;;;;;;;;;;12884481;23;20016;-84
2022/12/21 18:18:58;;;;;;;1.55;0.90;;;;;;;;;;12883586;23;20442;-84
2022/12/21 18:24:02;;;;;;;0.95;0.65;;;;;;;;;;12884943;23;20033;-84
2022/12/21 18:29:09;;;;;;;1.45;0.60;;;;;;;;;;12904853;22;20432;-83
2022/12/21 18:34:17;;;;;;;2.08;0.77;;;;;;;;;;12881809;23;20555;-83
2022/12/21 18:39:21;;;;;;;0.60;0.60;;;;;;;;;;12882332;22;20062;-82
2022/12/21 18:44:25;;;;;;;0.80;0.50;;;;;;;;;;12906376;22;20024;-83
2022/12/21 18:49:29;;;;;;;0.90;0.60;;;;;;;;;;12883895;23;20028;-84
2022/12/21 18:54:33;;;;;;;0.80;0.60;;;;;;;;;;12878930;23;20023;-83
2022/12/21 18:59:36;;;;;;;1.27;0.50;;;;;;;;;;12904964;22;20357;-84
2022/12/21 19:04:41;;;;;;;0.40;0.40;;;;;;;;;;12881879;22;20016;-83
2022/12/21 19:09:44;;;;;;;1.80;0.70;;;;;;;;;;12889066;23;20039;-84
2022/12/21 19:14:48;;;;;;;1.10;0.65;;;;;;;;;;12911035;22;20659;-84
2022/12/21 19:19:54;;;;;;;0.50;0.50;;;;;;;;;;12898197;22;20031;-84
2022/12/21 19:25:00;;;;;;;0.40;0.38;;;;;;;;;;12909829;22;20348;-84
2022/12/21 19:30:06;;;;;;;;;;;;;;;;;;12884851;22;20020;-83
2022/12/21 19:35:10;;;;;;;0.30;0.30;;;;;;;;;;12884166;22;20534;-83
2022/12/21 19:40:30;;;;;;;0.50;0.40;;;;;;;;;;12883099;22;20019;-81
2022/12/21 19:45:33;;;;;;;1.48;0.50;;;;;;;;;;12908085;22;20107;-82
2022/12/21 19:50:41;;;;;;;0.73;0.60;;;;;;;;;;12884197;22;20016;-82
2022/12/21 19:55:45;;;;;;;0.85;0.50;;;;;;;;;;12902914;22;20028;-83
2022/12/21 20:00:49;;;;;;;0.90;0.60;;;;;;;;;;12906681;22;20108;-82
2022/12/21 20:05:53;;;;;;;1.73;0.73;;;;;;;;;;12900429;22;20024;-83
2022/12/21 20:10:57;;;;;;;1.25;0.60;;;;;;;;;;12881131;22;20483;-82
2022/12/21 20:16:00;;;;;;;0.82;0.40;;;;;;;;;;12888125;22;20095;-81
2022/12/21 20:21:17;;;;;;;0.40;0.40;;;;;;;;;;12889296;22;20084;-81
2022/12/21 20:26:25;;;;;;;0.60;0.35;;;;;;;;;;12895902;22;20092;-83
2022/12/21 20:31:29;;;;;;;2.05;0.50;;;;;;;;;;12935073;22;20099;-82
2022/12/21 20:36:40;;;;;;;0.60;0.50;;;;;;;;;;12936767;22;20050;-82
2022/12/21 20:47:13;;;;;;;1.60;0.63;;;;;;;;;;12926264;22;20099;-82
2022/12/21 20:52:21;;;;;;;0.30;0.30;;;;;;;;;;12912045;22;20123;-82
2022/12/21 20:57:24;;;;;;;0.40;0.40;;;;;;;;;;12913743;22;20020;-82
2022/12/21 21:02:28;;;;;;;0.52;0.40;;;;;;;;;;12910212;22;20441;-82
2022/12/21 21:07:47;;;;;;;0.95;0.50;;;;;;;;;;12906208;22;20024;-82
2022/12/21 21:12:50;;;;;;;0.57;0.52;;;;;;;;;;12906497;22;20032;-82
2022/12/21 21:17:56;;;;;;;0.80;0.55;;;;;;;;;;12931289;22;20035;-83
2022/12/21 21:23:01;;;;;;;0.77;0.60;;;;;;;;;;12932327;22;20044;-84
2022/12/21 21:28:14;;;;;;;0.50;0.50;;;;;;;;;;12905102;23;20467;-82
2022/12/21 21:33:18;;;;;;;0.68;0.50;;;;;;;;;;12901771;22;20024;-80
2022/12/21 21:43:46;;;;;;;0.40;0.35;;;;;;;;;;12889340;22;20036;-80
2022/12/21 21:48:49;;;;;;;0.40;0.40;;;;;;;;;;12885699;22;20528;-80
2022/12/21 21:53:54;;;;;;;0.32;0.32;;;;;;;;;;12880594;23;20505;-83
2022/12/21 21:58:57;;;;;;;0.70;0.55;;;;;;;;;;12875482;23;20044;-83
2022/12/21 22:04:01;;;;;;;1.08;0.65;;;;;;;;;;12877647;23;20026;-82
2022/12/21 22:09:06;;;;;;;0.38;0.38;;;;;;;;;;12901511;22;20393;-84
2022/12/21 22:14:15;;;;;;;0.32;0.30;;;;;;;;;;12883220;22;20071;-83
2022/12/21 22:32:10;;;;;;;0.20;0.20;;;;;;;;;;12881856;22;20020;-83
2022/12/21 22:46:32;;;;;;;0.20;0.20;;;;;;;;;;12886256;22;20020;-81
2022/12/21 22:51:36;;;;;;;0.45;0.45;;;;;;;;;;12911393;22;20028;-80
2022/12/21 22:56:41;;;;;;;0.30;0.30;;;;;;;;;;12886624;22;20042;-81
2022/12/21 23:01:45;;;;;;;0.52;0.40;;;;;;;;;;12885641;22;20035;-80
2022/12/21 23:06:49;;;;;;;0.50;0.30;;;;;;;;;;12901220;22;20081;-80
2022/12/21 23:18:31;;;;;;;0.25;0.20;;;;;;;;;;12900393;22;20542;-81
2022/12/21 23:28:02;;;;;;;0.30;0.30;;;;;;;;;;12886098;23;20331;-80
2022/12/21 23:43:53;;;;;;;0.20;0.20;;;;;;;;;;12884636;23;20028;-81
